Marion Heights, Indiana
Current Conditions -  °F | °C
As of 10:53 AM on Saturday 22 Nov 2014 (Local Time) from KHUF Reporting Station
Overcast Overcast  
Wind Chill: 44°   Ceiling: 5000
Heat Index: 49°   Visibility: 10mi
Dew Point: 40°   Wind: 13mph
Humidity: 71%   Direction: 190°S
Pressure: 30.15"   Gusts: NA
Location:  39.5107°N, 87.4772°W
Report Text: KHUF 221553Z 19011KT 10SM OVC050 09/04 A3015 RMK AO2 RAB10E42 SLP213 P0001 T00940044
Loading
Personal Weather Stations






























Interactive Weather Map New forecast layout! Learn more

10-Day Weather Forecast

Advertisements
Track Severe Weather on mobile